sensor_id;sensor_type;location;lat;lon;timestamp;temperature;humidity
27540;DHT22;15906;52.046;4.724;2022-10-16T00:02:24;13.90;99.90
27540;DHT22;15906;52.046;4.724;2022-10-16T00:04:50;13.90;99.90
27540;DHT22;15906;52.046;4.724;2022-10-16T00:07:15;14.00;99.90
27540;DHT22;15906;52.046;4.724;2022-10-16T00:09:41;13.90;99.90
27540;DHT22;15906;52.046;4.724;2022-10-16T00:12:06;13.90;99.90
27540;DHT22;15906;52.046;4.724;2022-10-16T00:14:32;13.90;99.90
27540;DHT22;15906;52.046;4.724;2022-10-16T00:16:58;13.90;99.90
27540;DHT22;15906;52.046;4.724;2022-10-16T00:19:23;13.80;99.90
27540;DHT22;15906;52.046;4.724;2022-10-16T00:21:49;13.80;99.90
27540;DHT22;15906;52.046;4.724;2022-10-16T00:24:14;13.90;99.90
27540;DHT22;15906;52.046;4.724;2022-10-16T00:26:40;13.90;99.90
27540;DHT22;15906;52.046;4.724;2022-10-16T00:29:06;13.90;99.90
27540;DHT22;15906;52.046;4.724;2022-10-16T00:31:32;13.90;99.90
27540;DHT22;15906;52.046;4.724;2022-10-16T00:33:58;13.90;99.90
27540;DHT22;15906;52.046;4.724;2022-10-16T00:36:25;13.90;99.90
27540;DHT22;15906;52.046;4.724;2022-10-16T00:38:55;13.90;99.90
27540;DHT22;15906;52.046;4.724;2022-10-16T00:41:23;14.00;99.90
27540;DHT22;15906;52.046;4.724;2022-10-16T00:43:54;14.00;99.90
27540;DHT22;15906;52.046;4.724;2022-10-16T00:46:35;14.00;99.90
27540;DHT22;15906;52.046;4.724;2022-10-16T00:49:05;13.90;99.90
27540;DHT22;15906;52.046;4.724;2022-10-16T00:51:38;13.90;99.90
27540;DHT22;15906;52.046;4.724;2022-10-16T00:54:11;13.90;99.90
27540;DHT22;15906;52.046;4.724;2022-10-16T00:56:38;13.90;99.90
27540;DHT22;15906;52.046;4.724;2022-10-16T00:59:07;13.90;99.90
27540;DHT22;15906;52.046;4.724;2022-10-16T01:01:35;13.90;99.90
27540;DHT22;15906;52.046;4.724;2022-10-16T01:04:01;13.90;99.90
27540;DHT22;15906;52.046;4.724;2022-10-16T01:06:43;13.90;99.90
27540;DHT22;15906;52.046;4.724;2022-10-16T01:09:30;13.90;99.90
27540;DHT22;15906;52.046;4.724;2022-10-16T01:20:20;13.90;99.90
27540;DHT22;15906;52.046;4.724;2022-10-16T01:26:23;13.90;99.90
27540;DHT22;15906;52.046;4.724;2022-10-16T01:28:56;13.80;99.90
27540;DHT22;15906;52.046;4.724;2022-10-16T01:31:26;13.70;99.90
27540;DHT22;15906;52.046;4.724;2022-10-16T01:34:00;13.80;99.90
27540;DHT22;15906;52.046;4.724;2022-10-16T01:36:35;13.70;99.90
27540;DHT22;15906;52.046;4.724;2022-10-16T01:39:03;13.60;99.90
27540;DHT22;15906;52.046;4.724;2022-10-16T01:41:34;13.60;99.90
27540;DHT22;15906;52.046;4.724;2022-10-16T01:44:22;13.60;99.90
27540;DHT22;15906;52.046;4.724;2022-10-16T01:46:51;13.60;99.90
27540;DHT22;15906;52.046;4.724;2022-10-16T01:49:17;13.60;99.90
27540;DHT22;15906;52.046;4.724;2022-10-16T01:51:46;13.60;99.90
27540;DHT22;15906;52.046;4.724;2022-10-16T01:54:14;13.60;99.90
27540;DHT22;15906;52.046;4.724;2022-10-16T01:56:42;13.50;99.90
27540;DHT22;15906;52.046;4.724;2022-10-16T01:59:13;13.50;99.90
27540;DHT22;15906;52.046;4.724;2022-10-16T02:01:42;13.50;99.90
27540;DHT22;15906;52.046;4.724;2022-10-16T02:04:17;13.40;99.90
27540;DHT22;15906;52.046;4.724;2022-10-16T02:06:44;13.30;99.90
27540;DHT22;15906;52.046;4.724;2022-10-16T02:09:10;13.30;99.90
27540;DHT22;15906;52.046;4.724;2022-10-16T02:11:36;13.40;99.90
27540;DHT22;15906;52.046;4.724;2022-10-16T02:14:04;13.40;99.90
27540;DHT22;15906;52.046;4.724;2022-10-16T02:16:42;13.40;99.90
27540;DHT22;15906;52.046;4.724;2022-10-16T02:19:08;13.50;99.90
27540;DHT22;15906;52.046;4.724;2022-10-16T02:24:28;13.40;99.90
27540;DHT22;15906;52.046;4.724;2022-10-16T02:27:11;13.50;99.90
27540;DHT22;15906;52.046;4.724;2022-10-16T02:29:41;13.50;99.90
27540;DHT22;15906;52.046;4.724;2022-10-16T02:32:10;13.40;99.90
27540;DHT22;15906;52.046;4.724;2022-10-16T02:34:39;13.40;99.90
27540;DHT22;15906;52.046;4.724;2022-10-16T02:37:05;13.40;99.90
27540;DHT22;15906;52.046;4.724;2022-10-16T02:39:32;13.40;99.90
27540;DHT22;15906;52.046;4.724;2022-10-16T02:41:58;13.40;99.90
27540;DHT22;15906;52.046;4.724;2022-10-16T02:44:23;13.40;99.90
27540;DHT22;15906;52.046;4.724;2022-10-16T02:46:49;13.40;99.90
27540;DHT22;15906;52.046;4.724;2022-10-16T02:49:15;13.40;99.90
27540;DHT22;15906;52.046;4.724;2022-10-16T02:51:40;13.40;99.90
27540;DHT22;15906;52.046;4.724;2022-10-16T02:54:06;13.50;99.90
27540;DHT22;15906;52.046;4.724;2022-10-16T02:56:31;13.40;99.90
27540;DHT22;15906;52.046;4.724;2022-10-16T02:58:57;13.50;99.90
27540;DHT22;15906;52.046;4.724;2022-10-16T03:01:23;13.40;99.90
27540;DHT22;15906;52.046;4.724;2022-10-16T03:03:49;13.40;99.90
27540;DHT22;15906;52.046;4.724;2022-10-16T03:06:15;13.40;99.90
27540;DHT22;15906;52.046;4.724;2022-10-16T03:08:40;13.30;99.90
27540;DHT22;15906;52.046;4.724;2022-10-16T03:11:06;13.30;99.90
27540;DHT22;15906;52.046;4.724;2022-10-16T03:13:31;13.30;99.90
27540;DHT22;15906;52.046;4.724;2022-10-16T03:15:57;13.30;99.90
27540;DHT22;15906;52.046;4.724;2022-10-16T03:18:22;13.30;99.90
27540;DHT22;15906;52.046;4.724;2022-10-16T03:20:48;13.20;99.90
27540;DHT22;15906;52.046;4.724;2022-10-16T03:23:13;13.30;99.90
27540;DHT22;15906;52.046;4.724;2022-10-16T03:25:39;13.30;99.90
27540;DHT22;15906;52.046;4.724;2022-10-16T03:28:05;13.30;99.90
27540;DHT22;15906;52.046;4.724;2022-10-16T03:30:30;13.30;99.90
27540;DHT22;15906;52.046;4.724;2022-10-16T03:32:56;13.30;99.90
27540;DHT22;15906;52.046;4.724;2022-10-16T03:35:23;13.30;99.90
27540;DHT22;15906;52.046;4.724;2022-10-16T03:37:49;13.30;99.90
27540;DHT22;15906;52.046;4.724;2022-10-16T03:40:15;13.30;99.90
27540;DHT22;15906;52.046;4.724;2022-10-16T03:42:43;13.30;99.90
27540;DHT22;15906;52.046;4.724;2022-10-16T03:45:09;13.30;99.90
27540;DHT22;15906;52.046;4.724;2022-10-16T03:47:35;13.30;99.90
27540;DHT22;15906;52.046;4.724;2022-10-16T03:50:00;13.30;99.90
27540;DHT22;15906;52.046;4.724;2022-10-16T03:52:26;13.30;99.90
27540;DHT22;15906;52.046;4.724;2022-10-16T03:54:52;13.30;99.90
27540;DHT22;15906;52.046;4.724;2022-10-16T03:57:17;13.30;99.90
27540;DHT22;15906;52.046;4.724;2022-10-16T03:59:43;13.30;99.90
27540;DHT22;15906;52.046;4.724;2022-10-16T04:02:09;13.30;99.90
27540;DHT22;15906;52.046;4.724;2022-10-16T04:04:34;13.40;99.90
27540;DHT22;15906;52.046;4.724;2022-10-16T04:07:00;13.30;99.90
27540;DHT22;15906;52.046;4.724;2022-10-16T04:09:26;13.30;99.90
27540;DHT22;15906;52.046;4.724;2022-10-16T04:11:51;13.30;99.90
27540;DHT22;15906;52.046;4.724;2022-10-16T04:14:17;13.30;99.90
27540;DHT22;15906;52.046;4.724;2022-10-16T04:16:42;13.30;99.90
27540;DHT22;15906;52.046;4.724;2022-10-16T04:19:09;13.20;99.90
27540;DHT22;15906;52.046;4.724;2022-10-16T04:21:35;13.30;99.90
27540;DHT22;15906;52.046;4.724;2022-10-16T04:24:00;13.20;99.90
27540;DHT22;15906;52.046;4.724;2022-10-16T04:26:26;13.20;99.90
27540;DHT22;15906;52.046;4.724;2022-10-16T04:28:51;13.30;99.90
27540;DHT22;15906;52.046;4.724;2022-10-16T04:31:17;13.30;99.90
27540;DHT22;15906;52.046;4.724;2022-10-16T04:33:43;13.20;99.90
27540;DHT22;15906;52.046;4.724;2022-10-16T04:36:09;13.30;99.90
27540;DHT22;15906;52.046;4.724;2022-10-16T04:38:34;13.30;99.90
27540;DHT22;15906;52.046;4.724;2022-10-16T04:41:00;13.30;99.90
27540;DHT22;15906;52.046;4.724;2022-10-16T04:43:26;13.30;99.90
27540;DHT22;15906;52.046;4.724;2022-10-16T04:45:52;13.20;99.90
27540;DHT22;15906;52.046;4.724;2022-10-16T04:48:18;13.20;99.90
27540;DHT22;15906;52.046;4.724;2022-10-16T04:50:44;13.20;99.90
27540;DHT22;15906;52.046;4.724;2022-10-16T04:53:09;13.30;99.90
27540;DHT22;15906;52.046;4.724;2022-10-16T04:55:35;13.20;99.90
27540;DHT22;15906;52.046;4.724;2022-10-16T04:58:00;13.30;99.90
27540;DHT22;15906;52.046;4.724;2022-10-16T05:00:26;13.30;99.90
27540;DHT22;15906;52.046;4.724;2022-10-16T05:02:52;13.20;99.90
27540;DHT22;15906;52.046;4.724;2022-10-16T05:05:18;13.20;99.90
27540;DHT22;15906;52.046;4.724;2022-10-16T05:07:45;13.30;99.90
27540;DHT22;15906;52.046;4.724;2022-10-16T05:10:11;13.30;99.90
27540;DHT22;15906;52.046;4.724;2022-10-16T05:12:36;13.30;99.90
27540;DHT22;15906;52.046;4.724;2022-10-16T05:15:02;13.30;99.90
27540;DHT22;15906;52.046;4.724;2022-10-16T05:17:28;13.30;99.90
27540;DHT22;15906;52.046;4.724;2022-10-16T05:19:54;13.40;99.90
27540;DHT22;15906;52.046;4.724;2022-10-16T05:22:20;13.40;99.90
27540;DHT22;15906;52.046;4.724;2022-10-16T05:24:45;13.40;99.90
27540;DHT22;15906;52.046;4.724;2022-10-16T05:27:11;13.40;99.90
27540;DHT22;15906;52.046;4.724;2022-10-16T05:29:44;13.50;99.90
27540;DHT22;15906;52.046;4.724;2022-10-16T05:32:11;13.40;99.90
27540;DHT22;15906;52.046;4.724;2022-10-16T05:34:36;13.40;99.90
27540;DHT22;15906;52.046;4.724;2022-10-16T05:37:02;13.40;99.90
27540;DHT22;15906;52.046;4.724;2022-10-16T05:39:27;13.40;99.90
27540;DHT22;15906;52.046;4.724;2022-10-16T05:41:53;13.40;99.90
27540;DHT22;15906;52.046;4.724;2022-10-16T05:44:18;13.40;99.90
27540;DHT22;15906;52.046;4.724;2022-10-16T05:46:46;13.40;99.90
27540;DHT22;15906;52.046;4.724;2022-10-16T05:49:12;13.40;99.90
27540;DHT22;15906;52.046;4.724;2022-10-16T05:51:37;13.50;99.90
27540;DHT22;15906;52.046;4.724;2022-10-16T05:54:03;13.50;99.90
27540;DHT22;15906;52.046;4.724;2022-10-16T05:56:28;13.40;99.90
27540;DHT22;15906;52.046;4.724;2022-10-16T05:58:54;13.50;99.90
27540;DHT22;15906;52.046;4.724;2022-10-16T06:01:20;13.40;99.90
27540;DHT22;15906;52.046;4.724;2022-10-16T06:03:50;13.50;99.90
27540;DHT22;15906;52.046;4.724;2022-10-16T06:06:21;13.50;99.90
27540;DHT22;15906;52.046;4.724;2022-10-16T06:08:47;13.50;99.90
27540;DHT22;15906;52.046;4.724;2022-10-16T06:11:17;13.40;99.90
27540;DHT22;15906;52.046;4.724;2022-10-16T06:13:43;13.30;99.90
27540;DHT22;15906;52.046;4.724;2022-10-16T06:16:11;13.30;99.90
27540;DHT22;15906;52.046;4.724;2022-10-16T06:18:37;13.40;99.90
27540;DHT22;15906;52.046;4.724;2022-10-16T06:21:10;13.40;99.90
27540;DHT22;15906;52.046;4.724;2022-10-16T06:23:36;13.40;99.90
27540;DHT22;15906;52.046;4.724;2022-10-16T06:26:10;13.40;99.90
27540;DHT22;15906;52.046;4.724;2022-10-16T06:28:37;13.40;99.90
27540;DHT22;15906;52.046;4.724;2022-10-16T06:31:04;13.30;99.90
27540;DHT22;15906;52.046;4.724;2022-10-16T06:33:30;13.30;99.90
27540;DHT22;15906;52.046;4.724;2022-10-16T06:36:07;13.40;99.90
27540;DHT22;15906;52.046;4.724;2022-10-16T06:38:34;13.40;99.90
27540;DHT22;15906;52.046;4.724;2022-10-16T06:40:59;13.40;99.90
27540;DHT22;15906;52.046;4.724;2022-10-16T06:43:25;13.40;99.90
27540;DHT22;15906;52.046;4.724;2022-10-16T06:45:55;13.50;99.90
27540;DHT22;15906;52.046;4.724;2022-10-16T06:48:21;13.40;99.90
27540;DHT22;15906;52.046;4.724;2022-10-16T06:51:02;13.40;99.90
27540;DHT22;15906;52.046;4.724;2022-10-16T06:53:30;13.50;99.90
27540;DHT22;15906;52.046;4.724;2022-10-16T06:55:56;13.40;99.90
27540;DHT22;15906;52.046;4.724;2022-10-16T06:58:22;13.40;99.90
27540;DHT22;15906;52.046;4.724;2022-10-16T07:00:49;13.50;99.90
27540;DHT22;15906;52.046;4.724;2022-10-16T07:03:14;13.40;99.90
27540;DHT22;15906;52.046;4.724;2022-10-16T07:05:41;13.50;99.90
27540;DHT22;15906;52.046;4.724;2022-10-16T07:08:07;13.50;99.90
27540;DHT22;15906;52.046;4.724;2022-10-16T07:10:34;13.50;99.90
27540;DHT22;15906;52.046;4.724;2022-10-16T07:12:59;13.50;99.90
27540;DHT22;15906;52.046;4.724;2022-10-16T07:15:25;13.50;99.90
27540;DHT22;15906;52.046;4.724;2022-10-16T07:17:51;13.60;99.90
27540;DHT22;15906;52.046;4.724;2022-10-16T07:20:17;13.60;99.90
27540;DHT22;15906;52.046;4.724;2022-10-16T07:22:43;13.50;99.90
27540;DHT22;15906;52.046;4.724;2022-10-16T07:25:08;13.40;99.90
27540;DHT22;15906;52.046;4.724;2022-10-16T07:27:34;13.50;99.90
27540;DHT22;15906;52.046;4.724;2022-10-16T07:30:00;13.50;99.90
27540;DHT22;15906;52.046;4.724;2022-10-16T07:32:26;13.40;99.90
27540;DHT22;15906;52.046;4.724;2022-10-16T07:34:52;13.40;99.90
27540;DHT22;15906;52.046;4.724;2022-10-16T07:37:18;13.40;99.90
27540;DHT22;15906;52.046;4.724;2022-10-16T07:39:43;13.50;99.90
27540;DHT22;15906;52.046;4.724;2022-10-16T07:42:09;13.40;99.90
27540;DHT22;15906;52.046;4.724;2022-10-16T07:44:34;13.40;99.90
27540;DHT22;15906;52.046;4.724;2022-10-16T07:47:00;13.50;99.90
27540;DHT22;15906;52.046;4.724;2022-10-16T07:49:25;13.60;99.90
27540;DHT22;15906;52.046;4.724;2022-10-16T07:51:51;13.60;99.90
27540;DHT22;15906;52.046;4.724;2022-10-16T07:54:16;13.70;99.90
27540;DHT22;15906;52.046;4.724;2022-10-16T07:56:42;13.70;99.90
27540;DHT22;15906;52.046;4.724;2022-10-16T07:59:07;13.70;99.90
27540;DHT22;15906;52.046;4.724;2022-10-16T08:01:33;13.70;99.90
27540;DHT22;15906;52.046;4.724;2022-10-16T08:03:58;13.80;99.90
27540;DHT22;15906;52.046;4.724;2022-10-16T08:06:24;13.80;99.90
27540;DHT22;15906;52.046;4.724;2022-10-16T08:08:49;13.90;99.90
27540;DHT22;15906;52.046;4.724;2022-10-16T08:11:15;13.90;99.90
27540;DHT22;15906;52.046;4.724;2022-10-16T08:13:41;14.00;99.90
27540;DHT22;15906;52.046;4.724;2022-10-16T08:16:08;14.00;99.90
27540;DHT22;15906;52.046;4.724;2022-10-16T08:18:35;14.00;99.90
27540;DHT22;15906;52.046;4.724;2022-10-16T08:21:01;14.10;99.90
27540;DHT22;15906;52.046;4.724;2022-10-16T08:23:28;14.10;99.90
27540;DHT22;15906;52.046;4.724;2022-10-16T08:25:54;14.30;99.90
27540;DHT22;15906;52.046;4.724;2022-10-16T08:28:21;14.40;99.90
27540;DHT22;15906;52.046;4.724;2022-10-16T08:30:46;14.40;99.90
27540;DHT22;15906;52.046;4.724;2022-10-16T08:33:12;14.30;99.90
27540;DHT22;15906;52.046;4.724;2022-10-16T08:35:37;14.50;99.90
27540;DHT22;15906;52.046;4.724;2022-10-16T08:38:04;14.50;99.90
27540;DHT22;15906;52.046;4.724;2022-10-16T08:40:31;14.60;99.90
27540;DHT22;15906;52.046;4.724;2022-10-16T08:51:19;14.90;99.90
27540;DHT22;15906;52.046;4.724;2022-10-16T08:53:57;15.10;99.90
27540;DHT22;15906;52.046;4.724;2022-10-16T08:56:24;15.40;99.90
27540;DHT22;15906;52.046;4.724;2022-10-16T08:58:51;15.50;99.90
27540;DHT22;15906;52.046;4.724;2022-10-16T09:01:19;15.60;99.90
27540;DHT22;15906;52.046;4.724;2022-10-16T09:04:20;15.80;99.90
27540;DHT22;15906;52.046;4.724;2022-10-16T09:09:58;16.10;99.90
27540;DHT22;15906;52.046;4.724;2022-10-16T09:12:28;16.30;99.90
27540;DHT22;15906;52.046;4.724;2022-10-16T09:17:52;16.60;99.90
27540;DHT22;15906;52.046;4.724;2022-10-16T09:20:42;16.70;99.90
27540;DHT22;15906;52.046;4.724;2022-10-16T09:23:18;16.80;99.90
27540;DHT22;15906;52.046;4.724;2022-10-16T09:25:47;16.80;99.90
27540;DHT22;15906;52.046;4.724;2022-10-16T09:28:13;17.00;99.90
27540;DHT22;15906;52.046;4.724;2022-10-16T09:30:39;16.90;99.90
27540;DHT22;15906;52.046;4.724;2022-10-16T09:33:05;17.00;99.90
27540;DHT22;15906;52.046;4.724;2022-10-16T09:35:33;17.20;99.90
27540;DHT22;15906;52.046;4.724;2022-10-16T09:38:00;17.50;99.90
27540;DHT22;15906;52.046;4.724;2022-10-16T09:40:33;17.70;99.90
27540;DHT22;15906;52.046;4.724;2022-10-16T09:43:39;17.80;99.90
27540;DHT22;15906;52.046;4.724;2022-10-16T09:46:34;18.00;99.90
27540;DHT22;15906;52.046;4.724;2022-10-16T09:49:05;18.10;99.90
27540;DHT22;15906;52.046;4.724;2022-10-16T09:51:37;17.90;99.90
27540;DHT22;15906;52.046;4.724;2022-10-16T09:56:36;18.10;99.90
27540;DHT22;15906;52.046;4.724;2022-10-16T09:59:21;17.90;99.90
27540;DHT22;15906;52.046;4.724;2022-10-16T10:01:55;17.50;99.90
27540;DHT22;15906;52.046;4.724;2022-10-16T10:04:23;17.50;99.90
27540;DHT22;15906;52.046;4.724;2022-10-16T10:06:51;17.80;99.90
27540;DHT22;15906;52.046;4.724;2022-10-16T10:09:38;17.70;99.90
27540;DHT22;15906;52.046;4.724;2022-10-16T10:12:05;18.00;99.90
27540;DHT22;15906;52.046;4.724;2022-10-16T10:14:35;18.10;99.90
27540;DHT22;15906;52.046;4.724;2022-10-16T10:19:36;17.90;99.90
27540;DHT22;15906;52.046;4.724;2022-10-16T10:27:55;18.50;99.90
27540;DHT22;15906;52.046;4.724;2022-10-16T10:33:12;18.70;99.90
27540;DHT22;15906;52.046;4.724;2022-10-16T10:38:48;18.40;99.90
27540;DHT22;15906;52.046;4.724;2022-10-16T10:50:00;20.00;99.90
27540;DHT22;15906;52.046;4.724;2022-10-16T10:52:48;20.00;99.90
27540;DHT22;15906;52.046;4.724;2022-10-16T10:55:38;19.80;99.90
27540;DHT22;15906;52.046;4.724;2022-10-16T10:58:42;20.00;99.90
27540;DHT22;15906;52.046;4.724;2022-10-16T11:01:17;20.10;99.90
27540;DHT22;15906;52.046;4.724;2022-10-16T11:06:46;20.00;99.90
27540;DHT22;15906;52.046;4.724;2022-10-16T11:09:27;20.10;99.90
27540;DHT22;15906;52.046;4.724;2022-10-16T11:12:00;20.20;99.90
27540;DHT22;15906;52.046;4.724;2022-10-16T11:14:49;20.30;99.90
27540;DHT22;15906;52.046;4.724;2022-10-16T11:17:42;20.50;99.90
27540;DHT22;15906;52.046;4.724;2022-10-16T11:20:26;20.40;99.90
27540;DHT22;15906;52.046;4.724;2022-10-16T11:23:16;20.50;99.90
27540;DHT22;15906;52.046;4.724;2022-10-16T11:25:43;20.50;99.90
27540;DHT22;15906;52.046;4.724;2022-10-16T11:31:07;20.30;99.90
27540;DHT22;15906;52.046;4.724;2022-10-16T11:33:55;20.10;99.90
27540;DHT22;15906;52.046;4.724;2022-10-16T11:39:25;20.00;99.90
27540;DHT22;15906;52.046;4.724;2022-10-16T11:41:55;19.90;99.90
27540;DHT22;15906;52.046;4.724;2022-10-16T11:47:34;19.80;99.90
27540;DHT22;15906;52.046;4.724;2022-10-16T11:50:39;19.80;99.90
27540;DHT22;15906;52.046;4.724;2022-10-16T11:55:46;20.00;99.90
27540;DHT22;15906;52.046;4.724;2022-10-16T12:08:47;19.50;99.90
27540;DHT22;15906;52.046;4.724;2022-10-16T12:11:33;19.40;99.90
27540;DHT22;15906;52.046;4.724;2022-10-16T12:16:50;19.20;99.90
27540;DHT22;15906;52.046;4.724;2022-10-16T12:19:17;19.20;99.90
27540;DHT22;15906;52.046;4.724;2022-10-16T12:21:44;19.10;99.90
27540;DHT22;15906;52.046;4.724;2022-10-16T12:24:38;19.10;99.90
27540;DHT22;15906;52.046;4.724;2022-10-16T12:29:56;19.00;99.90
27540;DHT22;15906;52.046;4.724;2022-10-16T12:32:37;19.30;99.90
27540;DHT22;15906;52.046;4.724;2022-10-16T12:35:06;19.20;99.90
27540;DHT22;15906;52.046;4.724;2022-10-16T12:37:34;19.00;99.90
27540;DHT22;15906;52.046;4.724;2022-10-16T12:40:13;19.00;99.90
27540;DHT22;15906;52.046;4.724;2022-10-16T12:42:40;19.00;99.90
27540;DHT22;15906;52.046;4.724;2022-10-16T12:45:25;19.20;99.90
27540;DHT22;15906;52.046;4.724;2022-10-16T12:47:52;19.30;99.90
27540;DHT22;15906;52.046;4.724;2022-10-16T12:50:38;19.30;99.90
27540;DHT22;15906;52.046;4.724;2022-10-16T12:53:22;19.20;99.90
27540;DHT22;15906;52.046;4.724;2022-10-16T12:59:03;19.50;99.90
27540;DHT22;15906;52.046;4.724;2022-10-16T13:08:17;19.60;99.90
27540;DHT22;15906;52.046;4.724;2022-10-16T13:12:54;19.50;99.90
27540;DHT22;15906;52.046;4.724;2022-10-16T13:15:52;19.30;99.90
27540;DHT22;15906;52.046;4.724;2022-10-16T13:21:33;18.90;99.90
27540;DHT22;15906;52.046;4.724;2022-10-16T13:24:12;18.80;99.90
27540;DHT22;15906;52.046;4.724;2022-10-16T13:27:07;18.70;99.90
27540;DHT22;15906;52.046;4.724;2022-10-16T13:29:34;18.60;99.90
27540;DHT22;15906;52.046;4.724;2022-10-16T13:32:06;18.50;99.90
27540;DHT22;15906;52.046;4.724;2022-10-16T13:34:32;18.40;99.90
27540;DHT22;15906;52.046;4.724;2022-10-16T13:36:58;18.20;99.90
27540;DHT22;15906;52.046;4.724;2022-10-16T13:39:26;18.10;99.90
27540;DHT22;15906;52.046;4.724;2022-10-16T13:42:02;18.30;99.90
27540;DHT22;15906;52.046;4.724;2022-10-16T13:44:33;18.20;99.90
27540;DHT22;15906;52.046;4.724;2022-10-16T13:47:02;18.20;99.90
27540;DHT22;15906;52.046;4.724;2022-10-16T13:49:27;18.10;99.90
27540;DHT22;15906;52.046;4.724;2022-10-16T13:51:57;18.10;99.90
27540;DHT22;15906;52.046;4.724;2022-10-16T13:54:24;18.10;99.90
27540;DHT22;15906;52.046;4.724;2022-10-16T13:56:50;18.10;99.90
27540;DHT22;15906;52.046;4.724;2022-10-16T13:59:35;18.10;99.90
27540;DHT22;15906;52.046;4.724;2022-10-16T14:02:20;18.20;99.90
27540;DHT22;15906;52.046;4.724;2022-10-16T14:04:47;18.30;99.90
27540;DHT22;15906;52.046;4.724;2022-10-16T14:07:25;18.20;99.90
27540;DHT22;15906;52.046;4.724;2022-10-16T14:09:53;18.10;99.90
27540;DHT22;15906;52.046;4.724;2022-10-16T14:12:19;17.90;99.90
27540;DHT22;15906;52.046;4.724;2022-10-16T14:14:51;17.80;99.90
27540;DHT22;15906;52.046;4.724;2022-10-16T14:17:28;17.90;99.90
27540;DHT22;15906;52.046;4.724;2022-10-16T14:19:57;17.70;99.90
27540;DHT22;15906;52.046;4.724;2022-10-16T14:22:36;17.90;99.90
27540;DHT22;15906;52.046;4.724;2022-10-16T14:30:25;17.70;99.90
27540;DHT22;15906;52.046;4.724;2022-10-16T14:32:59;17.60;99.90
27540;DHT22;15906;52.046;4.724;2022-10-16T14:35:36;17.60;99.90
27540;DHT22;15906;52.046;4.724;2022-10-16T14:38:04;17.70;99.90
27540;DHT22;15906;52.046;4.724;2022-10-16T14:40:32;17.70;99.90
27540;DHT22;15906;52.046;4.724;2022-10-16T14:42:59;17.60;99.90
27540;DHT22;15906;52.046;4.724;2022-10-16T14:45:31;17.50;99.90
27540;DHT22;15906;52.046;4.724;2022-10-16T14:48:00;17.60;99.90
27540;DHT22;15906;52.046;4.724;2022-10-16T14:50:26;17.60;99.90
27540;DHT22;15906;52.046;4.724;2022-10-16T14:52:53;17.70;99.90
27540;DHT22;15906;52.046;4.724;2022-10-16T14:55:19;17.60;99.90
27540;DHT22;15906;52.046;4.724;2022-10-16T14:57:45;17.60;99.90
27540;DHT22;15906;52.046;4.724;2022-10-16T15:00:18;17.70;99.90
27540;DHT22;15906;52.046;4.724;2022-10-16T15:02:45;17.70;99.90
27540;DHT22;15906;52.046;4.724;2022-10-16T15:05:17;17.80;99.90
27540;DHT22;15906;52.046;4.724;2022-10-16T15:07:43;17.90;99.90
27540;DHT22;15906;52.046;4.724;2022-10-16T15:10:09;17.80;99.90
27540;DHT22;15906;52.046;4.724;2022-10-16T15:12:35;17.80;99.90
27540;DHT22;15906;52.046;4.724;2022-10-16T15:15:01;17.70;99.90
27540;DHT22;15906;52.046;4.724;2022-10-16T15:17:27;17.70;99.90
27540;DHT22;15906;52.046;4.724;2022-10-16T15:19:52;17.70;99.90
27540;DHT22;15906;52.046;4.724;2022-10-16T15:22:18;17.70;99.90
27540;DHT22;15906;52.046;4.724;2022-10-16T15:24:44;17.60;99.90
27540;DHT22;15906;52.046;4.724;2022-10-16T15:27:09;17.60;99.90
27540;DHT22;15906;52.046;4.724;2022-10-16T15:29:35;17.60;99.90
27540;DHT22;15906;52.046;4.724;2022-10-16T15:32:00;17.60;99.90
27540;DHT22;15906;52.046;4.724;2022-10-16T15:34:26;17.70;99.90
27540;DHT22;15906;52.046;4.724;2022-10-16T15:36:51;17.60;99.90
27540;DHT22;15906;52.046;4.724;2022-10-16T15:39:20;17.50;99.90
27540;DHT22;15906;52.046;4.724;2022-10-16T15:41:47;17.50;99.90
27540;DHT22;15906;52.046;4.724;2022-10-16T15:44:19;17.50;99.90
27540;DHT22;15906;52.046;4.724;2022-10-16T15:46:46;17.50;99.90
27540;DHT22;15906;52.046;4.724;2022-10-16T15:49:11;17.40;99.90
27540;DHT22;15906;52.046;4.724;2022-10-16T15:51:38;17.40;99.90
27540;DHT22;15906;52.046;4.724;2022-10-16T15:54:04;17.40;99.90
27540;DHT22;15906;52.046;4.724;2022-10-16T15:56:30;17.30;99.90
27540;DHT22;15906;52.046;4.724;2022-10-16T15:58:59;17.30;99.90
27540;DHT22;15906;52.046;4.724;2022-10-16T16:01:25;17.30;99.90
27540;DHT22;15906;52.046;4.724;2022-10-16T16:03:54;17.20;99.90
27540;DHT22;15906;52.046;4.724;2022-10-16T16:06:19;17.20;99.90
27540;DHT22;15906;52.046;4.724;2022-10-16T16:08:45;17.10;99.90
27540;DHT22;15906;52.046;4.724;2022-10-16T16:11:14;17.10;99.90
27540;DHT22;15906;52.046;4.724;2022-10-16T16:13:40;17.00;99.90
27540;DHT22;15906;52.046;4.724;2022-10-16T16:16:11;17.10;99.90
27540;DHT22;15906;52.046;4.724;2022-10-16T16:18:37;17.00;99.90
27540;DHT22;15906;52.046;4.724;2022-10-16T16:21:03;16.90;99.90
27540;DHT22;15906;52.046;4.724;2022-10-16T16:23:29;16.80;99.90
27540;DHT22;15906;52.046;4.724;2022-10-16T16:28:33;16.70;99.90
27540;DHT22;15906;52.046;4.724;2022-10-16T16:30:58;16.70;99.90
27540;DHT22;15906;52.046;4.724;2022-10-16T16:33:24;16.70;99.90
27540;DHT22;15906;52.046;4.724;2022-10-16T16:35:49;16.70;99.90
27540;DHT22;15906;52.046;4.724;2022-10-16T16:38:15;16.70;99.90
27540;DHT22;15906;52.046;4.724;2022-10-16T16:40:40;16.60;99.90
27540;DHT22;15906;52.046;4.724;2022-10-16T16:43:06;16.50;99.90
27540;DHT22;15906;52.046;4.724;2022-10-16T16:45:35;16.50;99.90
27540;DHT22;15906;52.046;4.724;2022-10-16T16:48:00;16.40;99.90
27540;DHT22;15906;52.046;4.724;2022-10-16T16:50:26;16.40;99.90
27540;DHT22;15906;52.046;4.724;2022-10-16T16:52:51;16.40;99.90
27540;DHT22;15906;52.046;4.724;2022-10-16T16:55:17;16.30;99.90
27540;DHT22;15906;52.046;4.724;2022-10-16T16:57:42;16.30;99.90
27540;DHT22;15906;52.046;4.724;2022-10-16T17:00:08;16.20;99.90
27540;DHT22;15906;52.046;4.724;2022-10-16T17:02:34;16.20;99.90
27540;DHT22;15906;52.046;4.724;2022-10-16T17:05:00;16.10;99.90
27540;DHT22;15906;52.046;4.724;2022-10-16T17:07:25;16.10;99.90
27540;DHT22;15906;52.046;4.724;2022-10-16T17:09:52;16.10;99.90
27540;DHT22;15906;52.046;4.724;2022-10-16T17:12:17;16.10;99.90
27540;DHT22;15906;52.046;4.724;2022-10-16T17:14:43;16.10;99.90
27540;DHT22;15906;52.046;4.724;2022-10-16T17:17:08;16.10;99.90
27540;DHT22;15906;52.046;4.724;2022-10-16T17:19:34;16.10;99.90
27540;DHT22;15906;52.046;4.724;2022-10-16T17:22:00;16.10;99.90
27540;DHT22;15906;52.046;4.724;2022-10-16T17:24:25;16.00;99.90
27540;DHT22;15906;52.046;4.724;2022-10-16T17:26:51;16.00;99.90
27540;DHT22;15906;52.046;4.724;2022-10-16T17:29:17;16.00;99.90
27540;DHT22;15906;52.046;4.724;2022-10-16T17:31:44;15.90;99.90